PHKO METAR and TAF weather

Enter ICAO airport designator
Station Type Date Time Source
PHKO METAR 2020/08/06 00:53 UTC NOAA

PHKO 060053Z 25008KT 10SM OVC041 29/21 A3001 RMK AO2 SLP160 T02890206


Station Type Date Time Source
PHKO Decoded METAR 2020/08/06 00:53 UTC NOAA

KONA INTERNATIONAL AIRPORT, HI, United States (PHKO) 19-44N 156-03W 27M
Aug 05, 2020 - 08:53 PM EDT / 2020.08.06 0053 UTC
Wind: from the WSW (250 degrees) at 9 MPH (8 KT):0
Visibility: 10 mile(s):0
Sky conditions: overcast
Temperature: 84.0 F (28.9 C)
Dew Point: 69.1 F (20.6 C)
Relative Humidity: 60%
Pressure (altimeter): 30.01 in. Hg (1016 hPa)
ob: PHKO 060053Z 25008KT 10SM OVC041 29/21 A3001 RMK AO2 SLP160 T02890206
cycle: 1

Station Type Date Time Source
PHKO TAF 2020/08/05 18:33 UTC NOAA

TAF PHKO 051731Z 0518/0618 VRB05KT P6SM VCSH SCT025 BKN045
FM052000 23010KT P6SM FEW030 BKN060
FM060500 12010KT P6SM SCT030 BKN060

Example: see airport list